Time;durP1;ratioP1;P1;durP2;ratioP2;P2;SDS_P1;SDS_P2;PMS_P1;PMS_P2;Temp;Humidity;BMP_temperature;BMP_pressure;BME280_temperature;BME280_humidity;BME280_pressure;Samples;Min_cycle;Max_cycle;Signal;HPM_P1;HPM_P2
2021/12/06 02:42:15;;;;;;;;;;;1.60;99.90;;;;;;5803043;22;19933;-83
2021/12/06 02:44:41;;;;;;;;;;;1.60;99.90;;;;;;4981182;28;20309;-83
2021/12/06 02:47:07;;;;;;;;;;;1.60;99.90;;;;;;4983817;28;20281;-82
2021/12/06 02:49:32;;;;;;;;;;;1.60;99.90;;;;;;4983954;28;20020;-83
2021/12/06 02:51:58;;;;;;;;;;;1.60;99.90;;;;;;4983422;28;19926;-83
2021/12/06 02:54:25;;;;;;;;;;;1.60;99.90;;;;;;4982587;28;20173;-83
2021/12/06 02:57:19;;;;;;;;;;;1.60;99.90;;;;;;4979924;28;19940;-83
2021/12/06 02:59:45;;;;;;;;;;;1.60;99.90;;;;;;4982041;28;19925;-83
2021/12/06 03:02:13;;;;;;;;;;;1.60;99.90;;;;;;4982920;28;19936;-83
2021/12/06 03:04:39;;;;;;;;;;;1.60;99.90;;;;;;4983067;28;19934;-83
2021/12/06 03:07:05;;;;;;;;;;;1.60;99.90;;;;;;4982109;28;20044;-80
2021/12/06 03:09:34;;;;;;;;;;;1.60;99.90;;;;;;4983521;28;19936;-82
2021/12/06 03:12:01;;;;;;;;;;;1.60;99.90;;;;;;4980046;28;20349;-84
2021/12/06 03:14:32;;;;;;;;;;;1.60;99.90;;;;;;5009023;28;19929;-84
2021/12/06 03:16:58;;;;;;;;;;;1.60;99.90;;;;;;4987247;28;19933;-84
2021/12/06 03:19:24;;;;;;;;;;;1.60;99.90;;;;;;4985459;28;19929;-85
2021/12/06 03:21:50;;;;;;;;;;;1.60;99.90;;;;;;5004242;28;20803;-83
2021/12/06 03:24:16;;;;;;;;;;;1.60;99.90;;;;;;4986242;28;19972;-84
2021/12/06 03:26:42;;;;;;;;;;;1.60;99.90;;;;;;4988440;28;19968;-84
2021/12/06 03:29:08;;;;;;;;;;;1.60;99.90;;;;;;4985722;28;19991;-84
2021/12/06 03:35:22;;;;;;;;;;;1.70;99.90;;;;;;5665096;23;20408;-83
2021/12/06 03:37:47;;;;;;;;;;;1.60;99.90;;;;;;4986354;28;20274;-83
2021/12/06 03:40:13;;;;;;;;;;;1.60;99.90;;;;;;4984030;28;19937;-84
2021/12/06 03:42:38;;;;;;;;;;;1.60;99.90;;;;;;4985074;28;20008;-84
2021/12/06 03:45:05;;;;;;;;;;;1.60;99.90;;;;;;5004650;28;19926;-83
2021/12/06 03:47:31;;;;;;;;;;;1.60;99.90;;;;;;5006086;28;19925;-84
2021/12/06 03:49:57;;;;;;;;;;;1.60;99.90;;;;;;4988375;28;19926;-83
2021/12/06 03:52:22;;;;;;;;;;;1.60;99.90;;;;;;4988453;28;19936;-84
2021/12/06 03:54:50;;;;;;;;;;;1.60;99.90;;;;;;4986920;28;19937;-83
2021/12/06 03:57:16;;;;;;;;;;;1.60;99.90;;;;;;4985126;28;19976;-83
2021/12/06 03:59:42;;;;;;;;;;;1.70;99.90;;;;;;4985532;28;19934;-83
2021/12/06 04:02:08;;;;;;;;;;;1.70;99.90;;;;;;4984012;28;20036;-83
2021/12/06 04:04:34;;;;;;;;;;;1.70;99.90;;;;;;4984775;28;19929;-83
2021/12/06 04:06:59;;;;;;;;;;;1.70;99.90;;;;;;5009208;28;19932;-82
2021/12/06 04:09:25;;;;;;;;;;;1.70;99.90;;;;;;4983770;28;19925;-83
2021/12/06 04:11:50;;;;;;;;;;;1.70;99.90;;;;;;4984418;28;20422;-83
2021/12/06 04:14:16;;;;;;;;;;;1.70;99.90;;;;;;4999674;28;19933;-83
2021/12/06 04:16:42;;;;;;;;;;;1.70;99.90;;;;;;4983262;28;19965;-83
2021/12/06 04:19:08;;;;;;;;;;;1.70;99.90;;;;;;4984579;28;19933;-83
2021/12/06 04:21:34;;;;;;;;;;;1.70;99.90;;;;;;4984338;28;19939;-83
2021/12/06 04:24:00;;;;;;;;;;;1.80;99.90;;;;;;5002880;28;20289;-83
2021/12/06 04:26:26;;;;;;;;;;;1.80;99.90;;;;;;4982486;28;19933;-82
2021/12/06 04:28:59;;;;;;;;;;;1.70;99.90;;;;;;5072940;23;19944;-83
2021/12/06 04:31:29;;;;;;;;;;;1.80;99.90;;;;;;4991952;28;20294;-83
2021/12/06 04:33:55;;;;;;;;;;;2.80;99.90;;;;;;4991363;28;19931;-84
2021/12/06 04:36:20;;;;;;;;;;;1.80;99.90;;;;;;4983475;28;19925;-83
2021/12/06 04:38:46;;;;;;;;;;;1.80;99.90;;;;;;4983119;28;19926;-83
2021/12/06 04:41:11;;;;;;;;;;;1.80;99.90;;;;;;4984825;28;19926;-83
2021/12/06 04:43:37;;;;;;;;;;;1.80;99.90;;;;;;4983823;28;19925;-83
2021/12/06 04:46:02;;;;;;;;;;;1.80;99.90;;;;;;4985390;28;20307;-82
2021/12/06 04:48:28;;;;;;;;;;;1.80;99.90;;;;;;4982244;28;20448;-83
2021/12/06 04:50:54;;;;;;;;;;;1.80;99.90;;;;;;4984311;28;19933;-83
2021/12/06 04:53:25;;;;;;;;;;;1.80;99.90;;;;;;4983435;28;19925;-83
2021/12/06 04:56:26;;;;;;;;;;;1.80;99.90;;;;;;4983883;28;20097;-83
2021/12/06 04:59:10;;;;;;;;;;;1.80;99.90;;;;;;4933392;28;19941;-82
2021/12/06 05:01:36;;;;;;;;;;;1.80;99.90;;;;;;4979582;28;19971;-83
2021/12/06 05:04:04;;;;;;;;;;;1.80;99.90;;;;;;4985016;28;20028;-82
2021/12/06 05:06:42;;;;;;;;;;;1.90;99.90;;;;;;4985000;28;20808;-83
2021/12/06 05:13:28;;;;;;;;;;;-0.20;99.90;;;;;;4941463;28;19929;-84
2021/12/06 05:16:15;;;;;;;;;;;1.20;99.90;;;;;;4925081;29;20342;-83
2021/12/06 05:18:47;;;;;;;;;;;1.80;99.90;;;;;;4925231;28;22053;-83
2021/12/06 05:21:13;;;;;;;;;;;1.90;99.90;;;;;;4926955;28;20500;-83
2021/12/06 05:23:47;;;;;;;;;;;1.70;99.90;;;;;;4924991;28;19935;-82
2021/12/06 05:33:17;;;;;;;;;;;0.60;99.90;;;;;;4938077;28;20414;-83
2021/12/06 05:36:07;;;;;;;;;;;1.90;99.90;;;;;;4961932;28;19920;-83
2021/12/06 05:38:33;;;;;;;;;;;1.80;99.90;;;;;;4955404;28;20012;-83
2021/12/06 05:40:59;;;;;;;;;;;1.80;99.90;;;;;;4988171;28;19939;-83
2021/12/06 05:43:24;;;;;;;;;;;1.90;99.90;;;;;;4987542;28;19949;-81
2021/12/06 05:45:50;;;;;;;;;;;1.90;99.90;;;;;;4985263;28;20256;-83
2021/12/06 05:48:17;;;;;;;;;;;1.90;99.90;;;;;;4983922;28;19930;-82
2021/12/06 05:50:44;;;;;;;;;;;1.80;99.90;;;;;;4983227;28;19925;-82
2021/12/06 05:53:09;;;;;;;;;;;1.90;99.90;;;;;;4983772;28;19937;-81
2021/12/06 05:55:35;;;;;;;;;;;1.90;99.90;;;;;;4982029;28;20421;-82
2021/12/06 05:58:03;;;;;;;;;;;1.90;99.90;;;;;;4983868;28;19926;-82
2021/12/06 06:00:31;;;;;;;;;;;1.90;99.90;;;;;;4982219;28;20297;-82
2021/12/06 06:02:57;;;;;;;;;;;1.90;99.90;;;;;;4984183;28;19934;-82
2021/12/06 06:05:23;;;;;;;;;;;1.90;99.90;;;;;;4984200;28;19940;-83
2021/12/06 06:07:49;;;;;;;;;;;1.90;99.90;;;;;;4982976;28;19934;-83
2021/12/06 06:10:15;;;;;;;;;;;1.90;99.90;;;;;;4983176;28;19933;-83
2021/12/06 06:12:41;;;;;;;;;;;1.90;99.90;;;;;;4982297;28;19987;-83
2021/12/06 06:15:07;;;;;;;;;;;2.80;99.90;;;;;;4982369;28;19968;-81
2021/12/06 06:17:39;;;;;;;;;;;1.90;99.90;;;;;;4983074;28;19925;-82
2021/12/06 06:20:05;;;;;;;;;;;1.90;99.90;;;;;;4983044;28;20021;-83
2021/12/06 06:22:31;;;;;;;;;;;1.90;99.90;;;;;;4981416;28;20396;-82
2021/12/06 06:24:56;;;;;;;;;;;1.90;99.90;;;;;;4986594;28;19930;-82
2021/12/06 06:27:22;;;;;;;;;;;1.90;99.90;;;;;;4982462;28;20457;-83
2021/12/06 06:29:47;;;;;;;;;;;1.90;99.90;;;;;;4981616;28;19933;-82
2021/12/06 06:32:13;;;;;;;;;;;1.90;99.90;;;;;;4982280;28;19933;-83
2021/12/06 06:34:39;;;;;;;;;;;1.90;99.90;;;;;;4982385;28;19929;-82
2021/12/06 06:37:04;;;;;;;;;;;3.10;99.90;;;;;;4981409;28;19988;-83
2021/12/06 06:39:30;;;;;;;;;;;1.80;99.90;;;;;;4983024;28;19930;-83
2021/12/06 06:41:55;;;;;;;;;;;1.80;99.90;;;;;;4982263;28;20009;-82
2021/12/06 06:44:39;;;;;;;;;;;2.00;99.90;;;;;;4982295;28;19944;-83
2021/12/06 06:47:17;;;;;;;;;;;1.80;99.90;;;;;;4982879;28;19925;-81
2021/12/06 06:49:43;;;;;;;;;;;1.80;99.90;;;;;;4987239;28;20554;-82
2021/12/06 06:52:18;;;;;;;;;;;2.50;99.90;;;;;;4986742;28;20031;-84
2021/12/06 06:54:44;;;;;;;;;;;3.00;99.90;;;;;;4986629;28;19941;-82
2021/12/06 06:57:12;;;;;;;;;;;1.80;99.90;;;;;;4985394;28;19929;-83
2021/12/06 06:59:38;;;;;;;;;;;2.60;99.90;;;;;;4981954;28;20029;-82
2021/12/06 07:02:04;;;;;;;;;;;3.00;99.90;;;;;;4984868;28;20012;-85
2021/12/06 07:04:29;;;;;;;;;;;1.70;99.90;;;;;;4987056;28;20343;-82
2021/12/06 07:07:06;;;;;;;;;;;1.90;99.90;;;;;;4989521;28;20389;-82
2021/12/06 07:09:57;;;;;;;;;;;1.70;99.90;;;;;;4987131;28;20346;-82
2021/12/06 07:12:35;;;;;;;;;;;1.80;99.90;;;;;;4986176;28;20024;-82
2021/12/06 07:21:45;;;;;;;;;;;0.80;99.90;;;;;;5003622;28;20332;-82
2021/12/06 07:24:11;;;;;;;;;;;1.30;99.90;;;;;;4986486;28;19937;-86
2021/12/06 07:26:36;;;;;;;;;;;1.80;99.90;;;;;;5000379;28;19922;-83
2021/12/06 07:29:02;;;;;;;;;;;1.70;99.90;;;;;;5009844;28;19914;-83
2021/12/06 07:31:40;;;;;;;;;;;1.60;99.90;;;;;;5004311;28;19929;-82
2021/12/06 07:34:12;;;;;;;;;;;2.00;99.90;;;;;;4989022;28;19932;-83
2021/12/06 07:36:38;;;;;;;;;;;1.80;99.90;;;;;;4986664;28;20403;-83
2021/12/06 07:46:26;;;;;;;;;;;1.60;99.90;;;;;;4980478;28;19929;-84
2021/12/06 07:49:19;;;;;;;;;;;2.90;99.90;;;;;;4987710;28;20004;-84
2021/12/06 07:51:48;;;;;;;;;;;1.70;99.90;;;;;;4985408;28;20368;-85
2021/12/06 07:54:14;;;;;;;;;;;1.70;99.90;;;;;;4985760;28;20012;-85
2021/12/06 07:56:43;;;;;;;;;;;1.70;99.90;;;;;;4986301;28;19932;-84
2021/12/06 08:01:44;;;;;;;;;;;1.80;99.90;;;;;;6120278;22;19931;-83
2021/12/06 08:04:11;;;;;;;;;;;1.70;99.90;;;;;;4986544;28;19929;-83
2021/12/06 08:15:49;;;;;;;;;;;1.80;99.90;;;;;;5660281;23;19941;-84
2021/12/06 08:18:15;;;;;;;;;;;0.60;99.90;;;;;;4970103;28;20693;-84
2021/12/06 08:21:12;;;;;;;;;;;1.70;99.90;;;;;;4971802;28;19934;-85
2021/12/06 08:30:31;;;;;;;;;;;0.40;99.90;;;;;;4971571;28;19926;-85
2021/12/06 08:33:31;;;;;;;;;;;1.80;99.90;;;;;;4972995;28;19926;-85
2021/12/06 08:36:30;;;;;;;;;;;1.80;99.90;;;;;;4969290;28;20307;-83
2021/12/06 09:00:44;;;;;;;;;;;1.90;99.90;;;;;;5647399;23;19930;-89
2021/12/06 09:06:01;;;;;;;;;;;1.90;99.90;;;;;;5006115;28;19929;-86
2021/12/06 09:08:48;;;;;;;;;;;1.90;99.90;;;;;;4981455;28;19933;-83
2021/12/06 09:14:10;;;;;;;;;;;1.90;99.90;;;;;;5364582;22;19961;-84
2021/12/06 09:16:37;;;;;;;;;;;2.00;99.90;;;;;;4971384;28;19926;-84
2021/12/06 09:19:04;;;;;;;;;;;2.00;99.90;;;;;;4988715;28;19995;-86
2021/12/06 09:21:29;;;;;;;;;;;2.00;99.90;;;;;;5008261;28;19932;-86
2021/12/06 09:23:58;;;;;;;;;;;2.00;99.90;;;;;;4989686;28;20342;-84
2021/12/06 09:26:24;;;;;;;;;;;2.10;99.90;;;;;;4974432;28;20048;-86
2021/12/06 09:28:49;;;;;;;;;;;2.10;99.90;;;;;;4968987;28;20016;-83
2021/12/06 09:31:18;;;;;;;;;;;2.20;99.90;;;;;;4975726;28;19926;-85
2021/12/06 09:33:43;;;;;;;;;;;2.20;99.90;;;;;;4975313;28;19926;-84
2021/12/06 09:36:10;;;;;;;;;;;2.20;99.90;;;;;;4971216;28;20099;-86
2021/12/06 09:39:33;;;;;;;;;;;2.20;99.90;;;;;;4968119;28;21051;-84
2021/12/06 09:42:02;;;;;;;;;;;2.20;99.90;;;;;;4972597;28;19929;-83
2021/12/06 09:48:31;;;;;;;;;;;2.20;99.90;;;;;;4989056;28;20381;-84
2021/12/06 09:51:11;;;;;;;;;;;3.10;99.90;;;;;;4960266;28;19976;-84
2021/12/06 09:53:56;;;;;;;;;;;2.20;99.90;;;;;;4974675;28;19930;-87
2021/12/06 09:56:32;;;;;;;;;;;2.20;99.90;;;;;;4968648;28;19926;-84
2021/12/06 09:59:18;;;;;;;;;;;2.30;99.90;;;;;;4967082;28;19937;-86
2021/12/06 10:01:53;;;;;;;;;;;2.20;99.90;;;;;;4969489;28;19933;-86
2021/12/06 10:04:23;;;;;;;;;;;2.10;99.90;;;;;;4977252;28;19936;-85
2021/12/06 10:06:50;;;;;;;;;;;2.20;99.90;;;;;;4965084;28;19926;-87
2021/12/06 10:11:54;;;;;;;;;;;2.20;99.90;;;;;;5130152;23;20028;-83
2021/12/06 10:14:20;;;;;;;;;;;2.20;99.90;;;;;;4993915;28;20053;-86
2021/12/06 10:16:46;;;;;;;;;;;2.20;99.90;;;;;;4990272;28;19955;-84
2021/12/06 10:19:13;;;;;;;;;;;2.20;99.90;;;;;;4987398;28;21893;-84
2021/12/06 10:21:39;;;;;;;;;;;2.20;99.90;;;;;;4989978;28;19969;-82
2021/12/06 10:24:11;;;;;;;;;;;2.20;99.90;;;;;;4992990;28;20396;-84
2021/12/06 10:26:40;;;;;;;;;;;2.20;99.90;;;;;;4992732;28;19925;-83
2021/12/06 10:29:07;;;;;;;;;;;3.20;99.90;;;;;;4993788;28;20276;-85
2021/12/06 10:31:37;;;;;;;;;;;2.20;99.90;;;;;;4995316;28;19929;-84
2021/12/06 10:34:03;;;;;;;;;;;2.10;99.90;;;;;;4994755;28;19965;-85
2021/12/06 10:36:29;;;;;;;;;;;2.10;99.90;;;;;;4989174;28;19967;-85
2021/12/06 10:38:59;;;;;;;;;;;2.20;99.90;;;;;;4994378;28;19987;-84
2021/12/06 10:41:32;;;;;;;;;;;2.10;99.90;;;;;;4994401;28;20015;-87
2021/12/06 10:44:09;;;;;;;;;;;2.10;99.90;;;;;;4993912;28;19931;-86
2021/12/06 10:46:36;;;;;;;;;;;1.80;99.90;;;;;;4992155;28;20412;-86
2021/12/06 10:49:19;;;;;;;;;;;2.20;99.90;;;;;;4989517;28;20087;-85
2021/12/06 10:51:45;;;;;;;;;;;2.10;99.90;;;;;;4992513;28;19932;-85
2021/12/06 10:54:37;;;;;;;;;;;2.10;99.90;;;;;;4992830;28;19929;-86
2021/12/06 10:57:22;;;;;;;;;;;2.10;99.90;;;;;;5012187;28;19968;-85
2021/12/06 11:00:10;;;;;;;;;;;4.10;99.90;;;;;;4995803;28;19926;-87
2021/12/06 11:03:17;;;;;;;;;;;1.10;99.90;;;;;;4993523;28;20404;-87
2021/12/06 11:05:44;;;;;;;;;;;2.20;99.90;;;;;;4930644;28;19926;-87
2021/12/06 11:08:31;;;;;;;;;;;2.10;99.90;;;;;;4990910;28;19979;-86
2021/12/06 11:11:27;;;;;;;;;;;2.20;99.90;;;;;;5012341;28;19952;-86
2021/12/06 11:14:03;;;;;;;;;;;2.10;99.90;;;;;;5010633;28;19925;-86
2021/12/06 11:16:30;;;;;;;;;;;2.10;99.90;;;;;;5007169;28;20286;-87
2021/12/06 11:18:56;;;;;;;;;;;2.10;99.90;;;;;;4987655;28;19926;-85
2021/12/06 11:21:24;;;;;;;;;;;2.20;99.90;;;;;;4990980;28;19929;-86
2021/12/06 11:24:07;;;;;;;;;;;2.60;99.90;;;;;;4993281;28;20271;-88
2021/12/06 11:26:34;;;;;;;;;;;2.20;99.90;;;;;;4991205;28;20099;-86
2021/12/06 11:29:11;;;;;;;;;;;2.10;99.90;;;;;;4994263;28;20336;-87
2021/12/06 11:31:44;;;;;;;;;;;2.10;99.90;;;;;;5010448;28;20064;-84
2021/12/06 11:34:10;;;;;;;;;;;2.20;99.90;;;;;;4993359;28;19929;-89
2021/12/06 11:36:39;;;;;;;;;;;2.20;99.90;;;;;;4993882;28;19925;-87
2021/12/06 11:39:07;;;;;;;;;;;2.20;99.90;;;;;;4993139;28;20022;-86
2021/12/06 11:41:32;;;;;;;;;;;2.10;99.90;;;;;;4993380;28;19972;-85
2021/12/06 11:44:11;;;;;;;;;;;2.10;99.90;;;;;;4993597;28;20019;-86
2021/12/06 11:46:36;;;;;;;;;;;2.20;99.90;;;;;;4993303;28;20021;-86
2021/12/06 11:49:02;;;;;;;;;;;2.20;99.90;;;;;;4994106;28;19940;-87
2021/12/06 11:51:49;;;;;;;;;;;2.20;99.90;;;;;;4993719;28;20001;-86
2021/12/06 11:54:34;;;;;;;;;;;0.70;99.90;;;;;;4989083;28;19926;-88
2021/12/06 11:57:17;;;;;;;;;;;2.30;99.90;;;;;;4985368;28;19937;-87
2021/12/06 12:03:33;;;;;;;;;;;2.30;99.90;;;;;;5010580;28;19929;-90
2021/12/06 12:09:20;;;;;;;;;;;2.20;99.90;;;;;;5006725;28;20495;-87
2021/12/06 12:12:01;;;;;;;;;;;2.30;99.90;;;;;;4992456;28;19985;-84
2021/12/06 12:17:41;;;;;;;;;;;2.30;99.90;;;;;;5006913;28;19925;-85
2021/12/06 12:20:36;;;;;;;;;;;2.30;99.90;;;;;;5002150;28;19932;-86
2021/12/06 12:23:15;;;;;;;;;;;2.40;99.90;;;;;;4991538;28;19926;-87
2021/12/06 12:25:49;;;;;;;;;;;2.40;99.90;;;;;;5051781;23;19929;-85
2021/12/06 12:30:43;;;;;;;;;;;2.50;99.90;;;;;;4975325;28;19926;-86
2021/12/06 12:33:10;;;;;;;;;;;2.50;99.90;;;;;;4977643;28;19929;-85
2021/12/06 12:35:37;;;;;;;;;;;2.60;99.90;;;;;;4978729;28;19937;-85
2021/12/06 12:38:03;;;;;;;;;;;3.30;99.90;;;;;;4985362;28;19926;-85
2021/12/06 12:40:47;;;;;;;;;;;2.50;99.90;;;;;;4978318;28;20381;-88
2021/12/06 12:43:14;;;;;;;;;;;2.50;99.90;;;;;;4983997;28;19925;-86
2021/12/06 12:45:45;;;;;;;;;;;2.50;99.90;;;;;;4977271;28;19930;-86
2021/12/06 12:55:34;;;;;;;;;;;2.60;99.90;;;;;;5015745;23;20448;-85
2021/12/06 12:58:19;;;;;;;;;;;2.60;99.90;;;;;;4933090;29;19973;-85
2021/12/06 13:04:07;;;;;;;;;;;3.40;99.90;;;;;;4965383;28;20004;-84
2021/12/06 13:06:34;;;;;;;;;;;3.00;99.90;;;;;;4950669;29;19934;-85
2021/12/06 13:09:01;;;;;;;;;;;2.60;99.90;;;;;;4940270;29;19934;-84
2021/12/06 13:11:57;;;;;;;;;;;2.60;99.90;;;;;;4933406;29;19930;-83
2021/12/06 13:14:32;;;;;;;;;;;2.40;99.90;;;;;;4934373;29;20362;-85
2021/12/06 13:19:43;;;;;;;;;;;2.60;99.90;;;;;;5177147;23;19936;-86
2021/12/06 13:22:13;;;;;;;;;;;2.60;99.90;;;;;;4986675;28;19929;-83
2021/12/06 13:24:47;;;;;;;;;;;2.60;99.90;;;;;;4991225;28;19949;-84
2021/12/06 13:27:18;;;;;;;;;;;2.60;99.90;;;;;;4984059;28;19929;-85
2021/12/06 13:29:48;;;;;;;;;;;2.60;99.90;;;;;;4991839;28;20239;-85
2021/12/06 13:32:41;;;;;;;;;;;2.60;99.90;;;;;;4990779;28;20019;-82
2021/12/06 13:35:22;;;;;;;;;;;2.60;99.90;;;;;;4994991;23;19971;-84
2021/12/06 13:41:23;;;;;;;;;;;2.60;99.90;;;;;;5008269;28;19952;-85
2021/12/06 13:44:04;;;;;;;;;;;2.60;99.90;;;;;;4991548;28;19948;-85
2021/12/06 13:46:44;;;;;;;;;;;2.60;99.90;;;;;;4984345;28;19953;-84
2021/12/06 13:52:27;;;;;;;;;;;2.60;99.90;;;;;;4989664;28;19936;-83
2021/12/06 13:54:56;;;;;;;;;;;5.00;99.90;;;;;;4991481;28;19972;-85
2021/12/06 13:57:49;;;;;;;;;;;2.60;99.90;;;;;;4989732;28;20017;-83
2021/12/06 14:00:42;;;;;;;;;;;2.40;99.90;;;;;;4990262;28;19932;-84
2021/12/06 14:03:40;;;;;;;;;;;2.70;99.90;;;;;;4991042;28;20450;-84
2021/12/06 14:06:25;;;;;;;;;;;2.70;99.90;;;;;;4990262;28;19926;-84
2021/12/06 14:08:53;;;;;;;;;;;3.60;99.90;;;;;;4991211;28;20017;-86
2021/12/06 14:18:18;;;;;;;;;;;2.70;99.90;;;;;;4989006;28;20270;-85
2021/12/06 14:21:12;;;;;;;;;;;2.70;99.90;;;;;;4989282;28;19933;-85
2021/12/06 14:27:36;;;;;;;;;;;4.20;99.90;;;;;;5007376;28;20056;-84
2021/12/06 14:30:06;;;;;;;;;;;3.70;99.90;;;;;;4991628;28;20044;-87
2021/12/06 14:32:31;;;;;;;;;;;1.30;99.90;;;;;;4990818;28;19963;-84
2021/12/06 15:01:30;;;;;;;;;;;2.90;99.90;;;;;;4996949;28;19925;-84
2021/12/06 15:07:10;;;;;;;;;;;2.80;99.90;;;;;;5000527;28;20353;-89
2021/12/06 15:09:36;;;;;;;;;;;2.90;99.90;;;;;;4990197;28;19987;-83
2021/12/06 15:15:17;;;;;;;;;;;2.90;99.90;;;;;;4994529;28;19926;-85
2021/12/06 15:21:52;;;;;;;;;;;2.90;99.90;;;;;;5008890;23;19936;-88
2021/12/06 15:41:26;;;;;;;;;;;2.90;99.90;;;;;;5740926;23;20369;-83
2021/12/06 15:44:06;;;;;;;;;;;3.00;99.90;;;;;;4986909;28;19934;-84
2021/12/06 15:46:36;;;;;;;;;;;2.20;99.90;;;;;;4990416;28;19976;-82
2021/12/06 15:49:08;;;;;;;;;;;2.90;99.90;;;;;;4991571;28;19975;-84
2021/12/06 15:51:56;;;;;;;;;;;2.90;99.90;;;;;;4988710;28;20277;-83
2021/12/06 15:57:57;;;;;;;;;;;2.90;99.90;;;;;;5006641;28;19960;-84
2021/12/06 16:00:28;;;;;;;;;;;2.90;99.90;;;;;;4992752;28;19941;-82
2021/12/06 16:02:56;;;;;;;;;;;3.00;99.90;;;;;;4997139;28;19925;-82
2021/12/06 16:05:26;;;;;;;;;;;3.00;99.90;;;;;;4991105;28;19984;-85
2021/12/06 16:08:25;;;;;;;;;;;3.00;99.90;;;;;;4992871;28;19932;-84
2021/12/06 16:18:56;;;;;;;;;;;3.00;99.90;;;;;;5378951;23;19926;-85
2021/12/06 16:32:07;;;;;;;;;;;3.00;99.90;;;;;;4935953;29;20368;-95
2021/12/06 16:34:35;;;;;;;;;;;1.40;99.90;;;;;;4920877;29;20421;-91
2021/12/06 16:37:24;;;;;;;;;;;2.90;99.90;;;;;;4935434;29;19957;-92
2021/12/06 16:40:05;;;;;;;;;;;3.00;99.90;;;;;;5151124;23;20343;-94
2021/12/06 16:42:37;;;;;;;;;;;3.00;99.90;;;;;;4994278;28;19968;-88
2021/12/06 16:45:06;;;;;;;;;;;3.00;99.90;;;;;;5005633;28;19929;-91
2021/12/06 16:47:33;;;;;;;;;;;3.00;99.90;;;;;;5015326;28;19913;-96
2021/12/06 16:50:13;;;;;;;;;;;3.10;99.90;;;;;;5014386;28;19924;-90
2021/12/06 16:52:58;;;;;;;;;;;3.10;99.90;;;;;;5010717;28;19926;-93
2021/12/06 16:55:54;;;;;;;;;;;3.10;99.90;;;;;;4999254;28;19972;-88
2021/12/06 16:58:22;;;;;;;;;;;3.10;99.90;;;;;;5006464;28;19925;-93
2021/12/06 17:00:52;;;;;;;;;;;3.10;99.90;;;;;;5004901;28;19965;-89
2021/12/06 17:03:21;;;;;;;;;;;3.10;99.90;;;;;;4999838;28;20358;-93
2021/12/06 17:05:49;;;;;;;;;;;3.10;99.90;;;;;;4985949;28;19926;-94
2021/12/06 17:08:22;;;;;;;;;;;3.20;99.90;;;;;;5000318;28;19929;-86
2021/12/06 17:10:56;;;;;;;;;;;3.20;99.90;;;;;;5002257;28;19929;-90
2021/12/06 17:13:26;;;;;;;;;;;3.20;99.90;;;;;;5002786;28;19926;-91
2021/12/06 17:15:59;;;;;;;;;;;3.20;99.90;;;;;;5000217;28;20073;-93
2021/12/06 17:18:27;;;;;;;;;;;3.20;99.90;;;;;;5008296;28;19957;-93
2021/12/06 17:20:56;;;;;;;;;;;3.20;99.90;;;;;;5002079;28;19945;-92
2021/12/06 17:23:25;;;;;;;;;;;3.20;99.90;;;;;;4996962;28;19925;-90
2021/12/06 17:25:55;;;;;;;;;;;3.20;99.90;;;;;;4998075;28;19980;-92
2021/12/06 17:28:27;;;;;;;;;;;3.20;99.90;;;;;;4996803;28;19992;-90
2021/12/06 17:30:59;;;;;;;;;;;3.20;99.90;;;;;;5228217;23;20024;-93
2021/12/06 17:33:26;;;;;;;;;;;3.20;99.90;;;;;;5015281;23;20333;-94
2021/12/06 17:36:02;;;;;;;;;;;4.50;99.90;;;;;;4995533;28;19929;-86
2021/12/06 17:38:31;;;;;;;;;;;3.20;99.90;;;;;;4997219;28;19922;-92
2021/12/06 17:40:58;;;;;;;;;;;3.20;99.90;;;;;;4989094;28;19956;-92
2021/12/06 17:43:28;;;;;;;;;;;3.20;99.90;;;;;;4987839;28;20215;-89
2021/12/06 17:45:53;;;;;;;;;;;3.80;99.90;;;;;;4985098;28;19925;-93
2021/12/06 17:48:19;;;;;;;;;;;3.20;99.90;;;;;;4988978;28;19948;-89
2021/12/06 17:50:45;;;;;;;;;;;3.20;99.90;;;;;;5010228;28;20001;-91
2021/12/06 17:53:11;;;;;;;;;;;3.20;99.90;;;;;;4994523;28;20312;-91
2021/12/06 17:55:37;;;;;;;;;;;3.20;99.90;;;;;;5158651;23;20312;-89
2021/12/06 17:58:19;;;;;;;;;;;3.20;99.90;;;;;;5003138;28;20031;-88
2021/12/06 18:00:46;;;;;;;;;;;3.20;99.90;;;;;;4989517;28;19926;-92
2021/12/06 18:03:12;;;;;;;;;;;3.20;99.90;;;;;;4995334;28;19983;-93
2021/12/06 18:05:37;;;;;;;;;;;3.20;99.90;;;;;;4996749;28;19933;-92
2021/12/06 18:08:03;;;;;;;;;;;3.40;99.90;;;;;;4996800;28;20589;-93
2021/12/06 18:10:28;;;;;;;;;;;3.20;99.90;;;;;;4999991;28;19952;-93
2021/12/06 18:12:57;;;;;;;;;;;3.20;99.90;;;;;;5000245;28;19952;-91
2021/12/06 18:15:22;;;;;;;;;;;3.20;99.90;;;;;;4994008;28;19930;-94
2021/12/06 18:17:48;;;;;;;;;;;3.20;99.90;;;;;;4995639;28;19937;-90
2021/12/06 18:20:14;;;;;;;;;;;3.10;99.90;;;;;;4994693;28;19954;-90
2021/12/06 18:22:46;;;;;;;;;;;3.10;99.90;;;;;;4996947;28;19981;-94
2021/12/06 18:25:12;;;;;;;;;;;3.20;99.90;;;;;;4999668;28;19933;-94
2021/12/06 18:27:38;;;;;;;;;;;3.00;99.90;;;;;;4996600;28;19930;-88
2021/12/06 18:30:05;;;;;;;;;;;3.00;99.90;;;;;;4997265;28;20370;-96
2021/12/06 18:32:31;;;;;;;;;;;2.90;99.90;;;;;;4998252;28;19984;-90
2021/12/06 18:34:59;;;;;;;;;;;3.00;99.90;;;;;;4997410;28;20055;-93
2021/12/06 18:37:26;;;;;;;;;;;2.90;99.90;;;;;;5012891;28;19973;-93
2021/12/06 18:39:58;;;;;;;;;;;2.90;99.90;;;;;;5015241;28;19918;-90
2021/12/06 18:42:28;;;;;;;;;;;2.90;99.90;;;;;;5011631;28;20254;-92
2021/12/06 18:44:53;;;;;;;;;;;2.90;99.90;;;;;;5002176;28;19968;-91
2021/12/06 18:47:27;;;;;;;;;;;2.80;99.90;;;;;;4999758;28;19971;-92
2021/12/06 18:49:53;;;;;;;;;;;2.80;99.90;;;;;;4999764;28;20016;-94
2021/12/06 18:52:19;;;;;;;;;;;2.80;99.90;;;;;;5000731;28;19925;-89
2021/12/06 18:54:45;;;;;;;;;;;2.80;99.90;;;;;;4999957;28;20289;-95
2021/12/06 18:57:10;;;;;;;;;;;2.70;99.90;;;;;;5001257;28;19933;-91
2021/12/06 18:59:36;;;;;;;;;;;2.70;99.90;;;;;;4999915;28;19932;-91
2021/12/06 19:02:04;;;;;;;;;;;2.80;99.90;;;;;;4998831;28;19925;-94
2021/12/06 19:04:30;;;;;;;;;;;2.70;99.90;;;;;;4999868;28;19937;-92
2021/12/06 19:06:56;;;;;;;;;;;2.70;99.90;;;;;;4998937;28;20357;-92
2021/12/06 19:09:22;;;;;;;;;;;2.70;99.90;;;;;;4995837;28;19947;-91
2021/12/06 19:11:48;;;;;;;;;;;2.70;99.90;;;;;;4993967;28;19932;-93
2021/12/06 19:14:13;;;;;;;;;;;2.70;99.90;;;;;;4992497;28;19926;-91
2021/12/06 19:17:13;;;;;;;;;;;2.70;99.90;;;;;;5009521;23;19938;-93
2021/12/06 19:20:13;;;;;;;;;;;2.70;99.90;;;;;;4982699;28;19924;-91
2021/12/06 19:22:46;;;;;;;;;;;2.20;99.90;;;;;;4956006;28;20037;-90
2021/12/06 19:25:14;;;;;;;;;;;2.60;99.90;;;;;;4963051;28;19925;-94
2021/12/06 19:27:55;;;;;;;;;;;1.10;99.90;;;;;;4957848;28;19930;-93
2021/12/06 19:30:36;;;;;;;;;;;1.40;99.90;;;;;;4958954;28;19934;-93
2021/12/06 19:35:56;;;;;;;;;;;2.70;99.90;;;;;;5027576;23;20035;-88
2021/12/06 19:38:33;;;;;;;;;;;;;;;;;;;;;
2021/12/06 19:41:18;;;;;;;;;;;2.70;99.90;;;;;;4917269;29;19942;-86
2021/12/06 19:43:56;;;;;;;;;;;2.70;99.90;;;;;;4911378;29;19945;-90
2021/12/06 19:46:28;;;;;;;;;;;2.70;99.90;;;;;;4914707;29;19927;-93
2021/12/06 19:49:21;;;;;;;;;;;2.60;99.90;;;;;;4883078;29;20392;-92
2021/12/06 19:52:04;;;;;;;;;;;2.70;99.90;;;;;;4914959;29;20415;-93
2021/12/06 19:54:29;;;;;;;;;;;1.40;99.90;;;;;;4898931;28;19931;-88
2021/12/06 19:56:56;;;;;;;;;;;2.70;99.90;;;;;;4995562;28;19929;-93
2021/12/06 20:02:37;;;;;;;;;;;1.50;99.90;;;;;;5014186;23;19929;-88
2021/12/06 20:09:06;;;;;;;;;;;2.40;99.90;;;;;;5018354;28;19925;-90
2021/12/06 20:11:31;;;;;;;;;;;2.30;99.90;;;;;;4994332;28;20435;-91
2021/12/06 20:13:57;;;;;;;;;;;2.80;99.90;;;;;;4992490;28;19925;-94
2021/12/06 20:16:27;;;;;;;;;;;3.30;99.90;;;;;;4991581;28;19987;-90
2021/12/06 20:18:55;;;;;;;;;;;2.80;99.90;;;;;;4990918;28;19936;-91
2021/12/06 20:21:37;;;;;;;;;;;2.80;99.90;;;;;;4994288;28;19980;-91
2021/12/06 20:24:06;;;;;;;;;;;2.80;99.90;;;;;;4992102;28;19926;-93
2021/12/06 20:26:41;;;;;;;;;;;2.90;99.90;;;;;;4995180;28;19956;-88
2021/12/06 20:29:07;;;;;;;;;;;2.80;99.90;;;;;;5012215;28;19933;-88
2021/12/06 20:31:33;;;;;;;;;;;2.80;99.90;;;;;;5012990;28;19936;-89
2021/12/06 20:34:19;;;;;;;;;;;3.70;99.90;;;;;;5001086;28;20008;-93
2021/12/06 20:36:45;;;;;;;;;;;2.70;99.90;;;;;;4996064;28;19926;-90
2021/12/06 20:39:16;;;;;;;;;;;2.70;99.90;;;;;;4993211;28;19929;-93
2021/12/06 20:41:42;;;;;;;;;;;1.40;99.90;;;;;;4995249;28;19926;-89
2021/12/06 20:44:31;;;;;;;;;;;3.40;99.90;;;;;;4995224;28;19936;-90
2021/12/06 20:47:27;;;;;;;;;;;2.70;99.90;;;;;;4999665;28;20014;-92
2021/12/06 20:49:59;;;;;;;;;;;2.70;99.90;;;;;;4998002;28;19948;-89
2021/12/06 20:52:25;;;;;;;;;;;3.50;99.90;;;;;;4996018;28;20048;-96
2021/12/06 20:55:22;;;;;;;;;;;2.70;99.90;;;;;;4998608;28;19953;-94
2021/12/06 20:57:59;;;;;;;;;;;2.80;99.90;;;;;;4993754;28;19991;-95
2021/12/06 21:00:26;;;;;;;;;;;2.00;99.90;;;;;;4991615;28;19926;-91
2021/12/06 21:03:17;;;;;;;;;;;4.50;99.90;;;;;;4995924;28;19925;-92
2021/12/06 21:06:23;;;;;;;;;;;3.40;99.90;;;;;;5005114;28;19936;-91
2021/12/06 21:09:34;;;;;;;;;;;2.80;99.90;;;;;;4997112;28;20349;-91
2021/12/06 21:18:36;;;;;;;;;;;2.80;99.90;;;;;;5015460;28;19929;-96